createdAt,value
2019-05-16T00:02:18.572Z,11.80
2019-05-16T00:04:51.596Z,12.80
2019-05-16T00:07:24.765Z,14.40
2019-05-16T00:09:59.009Z,12.40
2019-05-16T00:12:32.590Z,11.20
2019-05-16T00:15:06.055Z,13.20
2019-05-16T00:17:39.504Z,13.80
2019-05-16T00:20:14.088Z,14.20
2019-05-16T00:22:48.460Z,13.25
2019-05-16T00:25:21.957Z,12.75
2019-05-16T00:27:54.905Z,11.75
2019-05-16T00:30:28.746Z,13.25
2019-05-16T00:33:02.373Z,12.75
2019-05-16T00:35:35.738Z,13.50
2019-05-16T00:38:08.945Z,11.25
2019-05-16T00:40:42.091Z,12.00
2019-05-16T00:43:15.299Z,11.75
2019-05-16T00:45:48.734Z,12.50
2019-05-16T00:48:22.179Z,16.00
2019-05-16T00:50:55.157Z,14.50
2019-05-16T00:53:28.912Z,17.50
2019-05-16T00:56:03.009Z,16.00
2019-05-16T00:58:38.031Z,13.50
2019-05-16T01:01:11.345Z,13.00
2019-05-16T01:03:44.798Z,13.75
2019-05-16T01:06:22.533Z,13.50
2019-05-16T01:08:52.435Z,13.75
2019-05-16T01:11:27.663Z,17.00
2019-05-16T01:14:00.528Z,15.25
2019-05-16T01:16:33.461Z,13.00
2019-05-16T01:19:08.514Z,18.75
2019-05-16T01:21:41.165Z,11.75
2019-05-16T01:24:14.087Z,15.00
2019-05-16T01:26:48.472Z,11.50
2019-05-16T01:29:21.517Z,19.00
2019-05-16T01:31:54.450Z,13.50
2019-05-16T01:34:28.465Z,13.75
2019-05-16T01:37:01.502Z,16.50
2019-05-16T01:39:34.564Z,17.75
2019-05-16T01:42:08.152Z,19.00
2019-05-16T01:44:41.583Z,17.50
2019-05-16T01:47:14.824Z,14.50
2019-05-16T01:49:48.711Z,17.50
2019-05-16T01:52:21.785Z,16.00
2019-05-16T01:54:54.708Z,12.75
2019-05-16T01:57:28.325Z,13.75
2019-05-16T02:00:01.358Z,16.00
2019-05-16T02:02:34.254Z,11.75
2019-05-16T02:05:08.410Z,16.00
2019-05-16T02:07:41.498Z,15.00
2019-05-16T02:10:15.072Z,14.00
2019-05-16T02:12:49.025Z,17.25
2019-05-16T02:15:22.264Z,12.00
2019-05-16T02:17:55.134Z,13.75
2019-05-16T02:20:28.343Z,13.00
2019-05-16T02:23:02.010Z,15.25
2019-05-16T02:25:35.106Z,11.75
2019-05-16T02:28:08.136Z,11.25
2019-05-16T02:30:42.185Z,13.20
2019-05-16T02:33:15.530Z,12.00
2019-05-16T02:35:51.627Z,12.75
2019-05-16T02:38:23.118Z,13.40
2019-05-16T02:40:56.159Z,13.40
2019-05-16T02:43:31.271Z,12.40
2019-05-16T02:46:04.651Z,10.00
2019-05-16T02:48:40.821Z,9.80
2019-05-16T02:51:12.291Z,10.00
2019-05-16T02:53:45.555Z,11.60
2019-05-16T02:56:21.151Z,10.40
2019-05-16T02:58:54.041Z,11.40
2019-05-16T03:01:27.164Z,12.00
2019-05-16T03:04:01.743Z,7.20
2019-05-16T03:06:37.312Z,8.20
2019-05-16T03:09:11.519Z,10.00
2019-05-16T03:11:45.179Z,8.80
2019-05-16T03:14:21.240Z,11.40
2019-05-16T03:16:56.089Z,7.00
2019-05-16T03:19:31.293Z,6.40
2019-05-16T03:22:05.334Z,7.60
2019-05-16T03:24:41.738Z,6.80
2019-05-16T03:27:13.065Z,7.80
2019-05-16T03:29:45.975Z,9.60
2019-05-16T03:32:23.578Z,7.00
2019-05-16T03:34:55.079Z,6.60
2019-05-16T03:37:30.754Z,6.20
2019-05-16T03:40:03.729Z,6.40
2019-05-16T03:42:36.730Z,6.40
2019-05-16T03:45:10.778Z,9.40
2019-05-16T03:47:44.275Z,5.20
2019-05-16T03:50:17.458Z,4.40
2019-05-16T03:52:50.932Z,6.80
2019-05-16T03:55:24.096Z,6.00
2019-05-16T03:57:57.081Z,4.40
2019-05-16T04:00:52.474Z,5.00
2019-05-16T04:03:23.390Z,7.00
2019-05-16T04:05:56.342Z,5.40
2019-05-16T04:08:31.036Z,5.80
2019-05-16T04:11:04.433Z,6.80
2019-05-16T04:13:40.762Z,5.60
2019-05-16T04:16:13.084Z,6.60
2019-05-16T04:18:46.200Z,7.40
2019-05-16T04:21:21.793Z,6.60
2019-05-16T04:23:53.952Z,6.80
2019-05-16T04:26:26.815Z,7.60
2019-05-16T04:29:00.830Z,7.20
2019-05-16T04:31:34.106Z,9.00
2019-05-16T04:34:07.113Z,7.00
2019-05-16T04:36:40.692Z,6.20
2019-05-16T04:39:13.911Z,6.80
2019-05-16T04:41:47.281Z,7.80
2019-05-16T04:44:21.301Z,9.80
2019-05-16T04:46:54.645Z,8.00
2019-05-16T04:49:31.666Z,9.80
2019-05-16T04:52:03.398Z,8.80
2019-05-16T04:54:36.871Z,8.60
2019-05-16T04:57:11.910Z,10.80
2019-05-16T04:59:44.554Z,9.20
2019-05-16T05:02:21.048Z,9.60
2019-05-16T05:04:52.465Z,10.40
2019-05-16T05:07:25.543Z,8.60
2019-05-16T05:10:00.663Z,9.60
2019-05-16T05:12:33.182Z,7.60
2019-05-16T05:15:10.859Z,9.20
2019-05-16T05:17:42.062Z,8.60
2019-05-16T05:20:15.326Z,8.40
2019-05-16T05:22:49.943Z,7.00
2019-05-16T05:25:23.073Z,7.00
2019-05-16T05:27:55.968Z,9.60
2019-05-16T05:30:30.327Z,8.00
2019-05-16T05:33:03.395Z,6.00
2019-05-16T05:35:36.389Z,7.00
2019-05-16T05:38:10.502Z,6.00
2019-05-16T05:40:43.537Z,6.00
2019-05-16T05:43:16.439Z,4.00
2019-05-16T05:45:51.215Z,6.00
2019-05-16T05:48:24.013Z,6.00
2019-05-16T05:50:57.251Z,5.00
2019-05-16T05:53:30.613Z,5.40
2019-05-16T05:56:03.790Z,5.80
2019-05-16T05:58:36.703Z,5.20
2019-05-16T06:01:11.178Z,4.20
2019-05-16T06:03:44.911Z,4.40
2019-05-16T06:06:17.976Z,5.80
2019-05-16T06:08:50.905Z,3.60
2019-05-16T06:11:23.840Z,3.60
2019-05-16T06:13:57.047Z,4.00
2019-05-16T06:16:30.811Z,5.00
2019-05-16T06:19:04.032Z,4.00
2019-05-16T06:21:37.025Z,3.60
2019-05-16T06:24:10.763Z,5.20
2019-05-16T06:26:44.047Z,2.80
2019-05-16T06:29:16.914Z,5.00
2019-05-16T06:31:49.819Z,4.40
2019-05-16T06:34:22.642Z,5.00
2019-05-16T06:36:55.648Z,2.40
2019-05-16T06:39:39.246Z,3.00
2019-05-16T06:42:03.250Z,4.00
2019-05-16T06:44:36.088Z,2.60
2019-05-16T06:47:16.938Z,2.40
2019-05-16T06:49:43.751Z,2.00
2019-05-16T06:52:16.611Z,3.40
2019-05-16T06:54:50.387Z,3.00
2019-05-16T06:57:24.033Z,3.00
2019-05-16T06:59:56.871Z,4.00
2019-05-16T07:02:34.191Z,3.20
2019-05-16T07:05:05.120Z,1.00
2019-05-16T07:07:40.176Z,2.20
2019-05-16T07:10:13.615Z,4.20
2019-05-16T07:12:46.550Z,2.00
2019-05-16T07:15:20.604Z,2.40
2019-05-16T07:17:53.778Z,1.80
2019-05-16T07:20:26.691Z,1.60
2019-05-16T07:23:00.764Z,2.00
2019-05-16T07:25:33.631Z,1.20
2019-05-16T07:28:06.517Z,1.40
2019-05-16T07:30:40.817Z,1.40
2019-05-16T07:33:13.798Z,1.00
2019-05-16T07:35:46.627Z,3.00
2019-05-16T07:38:20.406Z,2.00
2019-05-16T07:40:53.627Z,9.00
2019-05-16T07:43:26.569Z,10.80
2019-05-16T07:46:00.524Z,4.80
2019-05-16T07:48:33.879Z,0.20
2019-05-16T07:51:06.806Z,0.00
2019-05-16T07:53:40.582Z,1.20
2019-05-16T07:56:13.428Z,1.60
2019-05-16T07:58:46.309Z,1.20
2019-05-16T08:01:20.032Z,1.00
2019-05-16T08:03:53.610Z,0.80
2019-05-16T08:06:26.441Z,1.20
2019-05-16T08:09:00.174Z,2.00
2019-05-16T08:11:33.240Z,1.20
2019-05-16T08:14:06.309Z,2.00
2019-05-16T08:16:40.853Z,1.60
2019-05-16T08:19:13.905Z,3.00
2019-05-16T08:21:47.159Z,1.80
2019-05-16T08:24:20.677Z,1.00
2019-05-16T08:26:53.593Z,1.00
2019-05-16T08:29:26.762Z,0.40
2019-05-16T08:32:02.186Z,0.40
2019-05-16T08:34:34.513Z,1.20
2019-05-16T08:37:30.616Z,2.80
2019-05-16T08:39:41.929Z,1.00
2019-05-16T08:42:15.115Z,3.00
2019-05-16T08:44:51.425Z,1.40
2019-05-16T08:47:22.661Z,1.40
2019-05-16T08:49:55.523Z,1.80
2019-05-16T08:52:31.520Z,0.80
2019-05-16T08:55:03.749Z,2.80
2019-05-16T08:57:36.904Z,2.00
2019-05-16T09:00:15.099Z,2.20
2019-05-16T09:02:45.400Z,2.80
2019-05-16T09:05:22.290Z,1.80
2019-05-16T09:08:00.422Z,1.80
2019-05-16T09:10:49.981Z,2.60
2019-05-16T09:13:02.196Z,1.40
2019-05-16T09:15:38.872Z,2.00
2019-05-16T09:18:10.029Z,2.00
2019-05-16T09:20:43.139Z,2.40
2019-05-16T09:23:17.888Z,2.80
2019-05-16T09:25:50.642Z,2.00
2019-05-16T09:28:23.598Z,1.00
2019-05-16T09:30:57.735Z,5.80
2019-05-16T09:33:30.840Z,1.20
2019-05-16T09:36:03.761Z,1.00
2019-05-16T09:38:38.284Z,1.20
2019-05-16T09:41:11.475Z,1.00
2019-05-16T09:43:44.398Z,2.80
2019-05-16T09:46:17.373Z,1.00
2019-05-16T09:48:50.304Z,0.60
2019-05-16T09:51:23.248Z,1.20
2019-05-16T09:53:56.757Z,2.00
2019-05-16T09:56:29.983Z,1.00
2019-05-16T09:59:02.823Z,1.00
2019-05-16T10:01:37.089Z,0.60
2019-05-16T10:04:10.187Z,0.60
2019-05-16T10:06:43.205Z,1.00
2019-05-16T10:09:17.448Z,0.80
2019-05-16T10:12:05.497Z,1.00
2019-05-16T10:14:26.886Z,2.00
2019-05-16T10:16:59.977Z,2.00
2019-05-16T10:19:32.888Z,0.80
2019-05-16T10:22:07.311Z,2.00
2019-05-16T10:24:40.330Z,2.00
2019-05-16T10:27:13.451Z,2.20
2019-05-16T10:29:48.418Z,2.00
2019-05-16T10:32:21.440Z,1.20
2019-05-16T10:34:54.290Z,1.40
2019-05-16T10:37:27.113Z,1.40
2019-05-16T10:40:00.121Z,2.80
2019-05-16T10:42:33.061Z,2.60
2019-05-16T10:45:08.647Z,2.20
2019-05-16T10:47:41.799Z,1.00
2019-05-16T10:50:16.618Z,1.60
2019-05-16T10:53:12.886Z,1.00
2019-05-16T10:55:24.642Z,2.00
2019-05-16T10:57:57.520Z,1.20
2019-05-16T11:00:58.056Z,3.20
2019-05-16T11:03:06.526Z,1.80
2019-05-16T11:05:39.876Z,2.00
2019-05-16T11:08:12.848Z,1.60
2019-05-16T11:10:47.669Z,1.00
2019-05-16T11:13:20.562Z,2.80
2019-05-16T11:15:53.545Z,1.60
2019-05-16T11:18:27.267Z,1.20
2019-05-16T11:21:00.622Z,2.20
2019-05-16T11:23:33.487Z,2.00
2019-05-16T11:26:06.585Z,1.40
2019-05-16T11:28:39.478Z,2.20
2019-05-16T11:31:12.282Z,1.00
2019-05-16T11:33:47.555Z,3.00
2019-05-16T11:36:19.765Z,1.40
2019-05-16T11:38:57.321Z,2.20
2019-05-16T11:41:27.754Z,2.40
2019-05-16T11:44:00.881Z,2.00
2019-05-16T11:46:33.736Z,2.00
2019-05-16T11:49:06.722Z,3.00
2019-05-16T11:51:39.608Z,2.00
2019-05-16T11:54:12.698Z,2.80
2019-05-16T11:56:46.431Z,1.60
2019-05-16T11:59:19.328Z,2.80
2019-05-16T12:01:52.504Z,3.00
2019-05-16T12:04:27.878Z,2.00
2019-05-16T12:07:00.273Z,1.00
2019-05-16T12:09:35.086Z,1.80
2019-05-16T12:12:08.798Z,1.80
2019-05-16T12:14:41.996Z,1.20
2019-05-16T12:17:16.590Z,3.00
2019-05-16T12:19:52.741Z,2.40
2019-05-16T12:22:26.673Z,2.80
2019-05-16T12:24:59.637Z,3.00
2019-05-16T12:27:33.870Z,1.80
2019-05-16T12:30:13.328Z,3.00
2019-05-16T12:32:42.334Z,2.40
2019-05-16T12:35:17.594Z,4.40
2019-05-16T12:37:51.983Z,2.00
2019-05-16T12:40:26.780Z,2.60
2019-05-16T12:43:00.171Z,0.00
2019-05-16T12:45:33.214Z,1.00
2019-05-16T12:48:06.800Z,1.60
2019-05-16T12:50:39.887Z,3.00
2019-05-16T12:53:12.870Z,4.20
2019-05-16T12:55:47.690Z,2.00
2019-05-16T12:58:27.744Z,2.60
2019-05-16T13:00:57.756Z,2.00
2019-05-16T13:03:30.620Z,2.20
2019-05-16T13:06:03.693Z,5.20
2019-05-16T13:08:37.480Z,4.00
2019-05-16T13:11:10.737Z,4.80
2019-05-16T13:14:01.307Z,2.80
2019-05-16T13:16:18.275Z,4.40
2019-05-16T13:18:51.117Z,2.80
2019-05-16T13:21:23.987Z,3.00
2019-05-16T13:23:57.595Z,3.00
2019-05-16T13:26:30.670Z,2.00
2019-05-16T13:29:03.639Z,4.20
2019-05-16T13:31:37.719Z,5.00
2019-05-16T13:34:10.691Z,4.00
2019-05-16T13:36:43.541Z,2.40
2019-05-16T13:39:17.129Z,4.00
2019-05-16T13:41:50.140Z,5.00
2019-05-16T13:44:23.338Z,2.40
2019-05-16T13:46:56.935Z,3.60
2019-05-16T13:49:29.828Z,3.00
2019-05-16T13:52:03.132Z,1.60
2019-05-16T13:54:36.407Z,2.80
2019-05-16T13:57:09.258Z,5.00
2019-05-16T13:59:42.251Z,3.80
2019-05-16T14:02:17.389Z,6.40
2019-05-16T14:04:49.872Z,6.40
2019-05-16T14:07:22.789Z,4.40
2019-05-16T14:09:57.854Z,4.80
2019-05-16T14:12:30.690Z,7.00
2019-05-16T14:15:04.281Z,6.80
2019-05-16T14:17:37.643Z,9.20
2019-05-16T14:20:15.886Z,7.80
2019-05-16T14:22:46.052Z,7.20
2019-05-16T14:25:18.953Z,7.60
2019-05-16T14:27:51.880Z,11.60
2019-05-16T14:30:24.862Z,10.00
2019-05-16T14:33:01.168Z,11.60
2019-05-16T14:35:32.292Z,12.80
2019-05-16T14:38:05.231Z,13.80
2019-05-16T14:40:38.160Z,11.00
2019-05-16T14:43:11.070Z,13.80
2019-05-16T14:45:43.979Z,12.60
2019-05-16T14:48:18.378Z,12.00
2019-05-16T14:50:51.480Z,12.00
2019-05-16T14:53:28.195Z,14.80
2019-05-16T14:55:59.296Z,13.40
2019-05-16T14:58:32.252Z,13.00
2019-05-16T15:01:07.364Z,13.20
2019-05-16T15:03:40.061Z,13.20
2019-05-16T15:06:13.041Z,12.00
2019-05-16T15:08:47.437Z,14.20
2019-05-16T15:11:20.476Z,10.60
2019-05-16T15:13:53.364Z,11.00
2019-05-16T15:16:27.318Z,12.00
2019-05-16T15:19:00.442Z,7.80
2019-05-16T15:21:33.398Z,9.20
2019-05-16T15:24:07.016Z,9.00
2019-05-16T15:26:39.969Z,7.80
2019-05-16T15:29:12.927Z,8.60
2019-05-16T15:31:46.811Z,8.80
2019-05-16T15:34:20.074Z,10.80
2019-05-16T15:36:52.879Z,8.60
2019-05-16T15:39:27.641Z,8.20
2019-05-16T15:42:00.313Z,7.00
2019-05-16T15:44:33.226Z,8.40
2019-05-16T15:47:07.997Z,7.80
2019-05-16T15:49:41.305Z,7.00
2019-05-16T15:52:16.588Z,5.00
2019-05-16T15:54:49.882Z,4.60
2019-05-16T15:57:22.710Z,8.00
2019-05-16T15:59:57.563Z,5.40
2019-05-16T16:02:31.402Z,7.00
2019-05-16T16:05:07.169Z,5.20
2019-05-16T16:07:39.544Z,4.20
2019-05-16T16:10:12.761Z,7.40
2019-05-16T16:12:47.771Z,6.20
2019-05-16T16:15:20.258Z,3.20
2019-05-16T16:17:53.098Z,5.60
2019-05-16T16:20:27.302Z,6.20
2019-05-16T16:23:00.626Z,4.00
2019-05-16T16:25:33.787Z,4.80
2019-05-16T16:28:07.486Z,4.80
2019-05-16T16:30:40.767Z,6.20
2019-05-16T16:33:25.131Z,4.00
2019-05-16T16:35:48.293Z,7.00
2019-05-16T16:38:21.281Z,6.20
2019-05-16T16:40:54.174Z,7.00
2019-05-16T16:43:27.024Z,21.40
2019-05-16T16:46:08.894Z,7.00
2019-05-16T16:48:34.632Z,8.00
2019-05-16T16:51:07.521Z,6.20
2019-05-16T16:53:40.366Z,8.20
2019-05-16T16:56:13.363Z,8.20
2019-05-16T16:58:46.890Z,6.60
2019-05-16T17:01:20.091Z,7.20
2019-05-16T17:03:54.758Z,8.80
2019-05-16T17:06:27.586Z,8.40
2019-05-16T17:09:00.741Z,7.80
2019-05-16T17:11:33.640Z,8.60
2019-05-16T17:14:06.873Z,6.00
2019-05-16T17:16:40.382Z,7.20
2019-05-16T17:19:13.522Z,7.20
2019-05-16T17:21:55.426Z,10.00
2019-05-16T17:24:24.137Z,6.40
2019-05-16T17:26:57.757Z,6.20
2019-05-16T17:29:30.742Z,7.20
2019-05-16T17:32:08.922Z,6.80
2019-05-16T17:34:38.307Z,10.20
2019-05-16T17:37:11.197Z,7.40
2019-05-16T17:39:44.071Z,6.20
2019-05-16T17:42:16.962Z,7.60
2019-05-16T17:44:49.814Z,10.80
2019-05-16T17:47:22.679Z,8.60
2019-05-16T17:49:55.507Z,7.60
2019-05-16T17:52:28.411Z,7.20
2019-05-16T17:55:01.254Z,7.00
2019-05-16T17:57:34.230Z,19.20
2019-05-16T18:00:12.911Z,5.60
2019-05-16T18:02:43.745Z,17.20
2019-05-16T18:05:17.381Z,29.00
2019-05-16T18:07:50.361Z,22.40
2019-05-16T18:10:23.504Z,12.20
2019-05-16T18:12:56.918Z,10.20
2019-05-16T18:15:29.820Z,27.40
2019-05-16T18:18:02.756Z,25.00
2019-05-16T18:20:37.259Z,33.40
2019-05-16T18:23:10.522Z,24.20
2019-05-16T18:25:43.601Z,28.80
2019-05-16T18:28:17.543Z,20.20
2019-05-16T18:30:50.722Z,28.40
2019-05-16T18:33:23.716Z,18.20
2019-05-16T18:35:58.045Z,16.80
2019-05-16T18:38:31.348Z,22.80
2019-05-16T18:41:04.515Z,20.60
2019-05-16T18:43:37.679Z,25.60
2019-05-16T18:46:10.683Z,32.00
2019-05-16T18:48:43.702Z,16.80
2019-05-16T18:51:16.637Z,14.20
2019-05-16T18:53:49.651Z,13.00
2019-05-16T18:56:22.730Z,14.00
2019-05-16T18:58:57.236Z,11.40
2019-05-16T19:01:30.372Z,10.40
2019-05-16T19:04:03.836Z,11.20
2019-05-16T19:06:37.165Z,10.40
2019-05-16T19:09:10.234Z,10.00
2019-05-16T19:11:43.171Z,11.40
2019-05-16T19:14:16.877Z,12.40
2019-05-16T19:16:50.079Z,9.20
2019-05-16T19:19:25.455Z,12.20
2019-05-16T19:21:59.490Z,11.40
2019-05-16T19:24:32.657Z,10.20
2019-05-16T19:27:06.750Z,11.00
2019-05-16T19:29:40.072Z,9.80
2019-05-16T19:32:13.326Z,12.60
2019-05-16T19:34:46.411Z,7.60
2019-05-16T19:37:21.007Z,10.00
2019-05-16T19:39:54.073Z,6.80
2019-05-16T19:42:29.864Z,10.00
2019-05-16T19:45:02.458Z,12.60
2019-05-16T19:47:40.775Z,16.40
2019-05-16T19:50:11.167Z,37.40
2019-05-16T19:52:44.100Z,11.00
2019-05-16T19:55:17.215Z,9.20
2019-05-16T19:57:50.162Z,8.80
2019-05-16T20:00:26.419Z,8.40
2019-05-16T20:02:58.793Z,7.60
2019-05-16T20:05:31.695Z,11.00
2019-05-16T20:08:06.634Z,11.40
2019-05-16T20:10:40.292Z,7.60
2019-05-16T20:13:13.229Z,7.00
2019-05-16T20:15:47.107Z,10.40
2019-05-16T20:18:20.261Z,9.20
2019-05-16T20:20:53.222Z,10.00
2019-05-16T20:23:27.579Z,8.60
2019-05-16T20:26:00.909Z,8.40
2019-05-16T20:28:34.037Z,9.00
2019-05-16T20:31:07.870Z,9.00
2019-05-16T20:33:40.983Z,7.40
2019-05-16T20:36:13.911Z,6.80
2019-05-16T20:38:46.965Z,7.60
2019-05-16T20:41:19.836Z,9.80
2019-05-16T20:43:52.741Z,7.80
2019-05-16T20:46:25.853Z,9.00
2019-05-16T20:48:59.126Z,8.20
2019-05-16T20:51:32.038Z,8.40
2019-05-16T20:54:06.951Z,10.00
2019-05-16T20:56:39.629Z,8.20
2019-05-16T20:59:12.461Z,6.20
2019-05-16T21:01:46.468Z,8.00
2019-05-16T21:04:19.969Z,10.60
2019-05-16T21:07:00.226Z,9.80
2019-05-16T21:09:27.690Z,10.20
2019-05-16T21:12:00.568Z,11.80
2019-05-16T21:14:33.481Z,12.60
2019-05-16T21:17:06.771Z,11.60
2019-05-16T21:19:39.702Z,12.40
2019-05-16T21:22:12.677Z,13.20
2019-05-16T21:24:46.668Z,11.80
2019-05-16T21:27:19.607Z,12.00
2019-05-16T21:29:52.523Z,14.80
2019-05-16T21:32:27.021Z,13.80
2019-05-16T21:35:00.200Z,12.80
2019-05-16T21:37:33.088Z,14.80
2019-05-16T21:40:07.991Z,13.20
2019-05-16T21:42:41.055Z,13.20
2019-05-16T21:45:14.148Z,14.80
2019-05-16T21:47:47.158Z,16.40
2019-05-16T21:50:20.328Z,14.80
2019-05-16T21:52:53.213Z,17.00
2019-05-16T21:55:27.349Z,15.80
2019-05-16T21:58:01.788Z,17.40
2019-05-16T22:00:37.699Z,20.40
2019-05-16T22:03:10.984Z,21.80
2019-05-16T22:05:46.317Z,17.00
2019-05-16T22:08:18.857Z,23.80
2019-05-16T22:10:52.013Z,18.40
2019-05-16T22:13:24.948Z,20.80
2019-05-16T22:15:57.799Z,21.20
2019-05-16T22:18:30.784Z,22.20
2019-05-16T22:21:03.705Z,21.80
2019-05-16T22:23:37.399Z,23.40
2019-05-16T22:26:10.425Z,20.20
2019-05-16T22:28:43.411Z,21.80
2019-05-16T22:31:16.593Z,23.80
2019-05-16T22:33:49.525Z,22.00
2019-05-16T22:36:22.367Z,25.60
2019-05-16T22:38:56.788Z,25.60
2019-05-16T22:41:29.905Z,26.80
2019-05-16T22:44:03.005Z,26.00
2019-05-16T22:46:37.171Z,29.80
2019-05-16T22:49:10.259Z,26.40
2019-05-16T22:51:43.100Z,27.20
2019-05-16T22:54:17.251Z,26.00
2019-05-16T22:56:50.252Z,30.60
2019-05-16T22:59:23.152Z,26.40
2019-05-16T23:01:56.970Z,24.60
2019-05-16T23:04:29.865Z,29.00
2019-05-16T23:07:02.784Z,29.00
2019-05-16T23:09:36.580Z,22.00
2019-05-16T23:12:09.592Z,26.80
2019-05-16T23:14:42.470Z,27.40
2019-05-16T23:17:17.246Z,20.80
2019-05-16T23:19:50.677Z,32.00
2019-05-16T23:22:23.523Z,28.40
2019-05-16T23:24:57.056Z,29.60
2019-05-16T23:27:29.909Z,23.40
2019-05-16T23:30:03.171Z,28.20
2019-05-16T23:32:36.516Z,31.00
2019-05-16T23:35:10.085Z,21.60
2019-05-16T23:37:42.995Z,24.40
2019-05-16T23:40:16.057Z,22.20
2019-05-16T23:42:48.889Z,18.20
2019-05-16T23:45:21.787Z,14.60
2019-05-16T23:47:56.399Z,19.20
2019-05-16T23:50:29.408Z,20.40
2019-05-16T23:53:02.310Z,22.20
2019-05-16T23:55:37.152Z,17.60
2019-05-16T23:58:10.241Z,18.40
